Time;durP1;ratioP1;P1;durP2;ratioP2;P2;SDS_P1;SDS_P2;PMS_P1;PMS_P2;Temp;Humidity;BMP_temperature;BMP_pressure;BME280_temperature;BME280_humidity;BME280_pressure;Samples;Min_cycle;Max_cycle;Signal;HPM_P1;HPM_P2
2022/06/23 00:00:16;;;;;;;;;;;;;;;-142.75;100.00;76462.03;5052638;28;19958;-68
2022/06/23 00:02:42;;;;;;;;;;;;;;;-142.75;100.00;76469.91;5052793;28;19917;-67
2022/06/23 00:05:11;;;;;;;;;;;;;;;-142.75;100.00;76481.72;5052610;28;19917;-68
2022/06/23 00:07:37;;;;;;;;;;;;;;;-142.75;100.00;76475.81;5051790;28;19913;-68
2022/06/23 00:10:20;;;;;;;;;;;;;;;-142.75;100.00;76481.72;5052469;28;19919;-68
2022/06/23 00:12:45;;;;;;;;;;;;;;;-142.75;100.00;76483.69;5052485;28;19913;-68
2022/06/23 00:15:13;;;;;;;;;;;;;;;-142.75;100.00;76481.72;5052550;28;20004;-68
2022/06/23 00:17:42;;;;;;;;;;;;;;;-142.75;100.00;76475.81;5052402;28;20027;-68
2022/06/23 00:20:33;;;;;;;;;;;;;;;-142.75;100.00;76485.66;5052480;28;19913;-68
2022/06/23 00:23:02;;;;;;;;;;;;;;;-142.75;100.00;76483.69;5049366;28;20309;-68
2022/06/23 00:25:30;;;;;;;;;;;;;;;-142.75;100.00;76479.75;5052415;28;19912;-68
2022/06/23 00:27:56;;;;;;;;;;;;;;;-142.75;100.00;76479.75;5052091;28;19913;-67
2022/06/23 00:30:27;;;;;;;;;;;;;;;-142.75;100.00;76479.75;5052490;28;20357;-67
2022/06/23 00:32:53;;;;;;;;;;;;;;;-142.75;100.00;76473.84;5052318;28;19923;-67
2022/06/23 00:35:18;;;;;;;;;;;;;;;-142.75;100.00;76469.91;5052143;28;19913;-68
2022/06/23 00:37:49;;;;;;;;;;;;;;;-142.75;100.00;76493.53;5034220;28;19983;-68
2022/06/23 00:40:17;;;;;;;;;;;;;;;-142.75;100.00;76487.63;5052216;28;20310;-68
2022/06/23 00:43:01;;;;;;;;;;;;;;;-142.75;100.00;76485.66;5052291;28;19913;-67
2022/06/23 00:45:31;;;;;;;;;;;;;;;-142.75;100.00;76487.63;5052505;28;19959;-68
2022/06/23 00:48:16;;;;;;;;;;;;;;;-142.75;100.00;76485.66;5052154;28;20412;-68
2022/06/23 00:50:41;;;;;;;;;;;;;;;-142.75;100.00;76495.50;5052284;28;19966;-68
2022/06/23 00:53:12;;;;;;;;;;;;;;;-142.75;100.00;76515.19;5052094;28;19917;-69
2022/06/23 00:55:41;;;;;;;;;;;;;;;-142.75;100.00;76509.28;5052587;28;20286;-68
2022/06/23 00:58:19;;;;;;;;;;;;;;;-142.75;100.00;76501.41;5033916;28;19913;-68
2022/06/23 01:00:44;;;;;;;;;;;;;;;-142.75;100.00;76509.28;5052070;28;19913;-68
2022/06/23 01:03:15;;;;;;;;;;;;;;;-142.75;100.00;76513.22;5052031;28;19920;-68
2022/06/23 01:05:43;;;;;;;;;;;;;;;-142.75;100.00;76513.22;5052172;28;20408;-68
2022/06/23 01:08:22;;;;;;;;;;;;;;;-142.75;100.00;76525.03;5051876;28;19924;-67
2022/06/23 01:11:13;;;;;;;;;;;;;;;-142.75;100.00;76517.16;5052085;28;19913;-68
2022/06/23 01:13:49;;;;;;;;;;;;;;;-142.75;100.00;76515.19;5051888;28;19920;-68
2022/06/23 01:16:17;;;;;;;;;;;;;;;-142.75;100.00;76511.25;5052042;28;19948;-68
2022/06/23 01:18:50;;;;;;;;;;;;;;;-142.75;100.00;76511.25;5053977;28;20007;-68
2022/06/23 01:21:24;;;;;;;;;;;;;;;-142.75;100.00;76519.13;5055942;28;19913;-68
2022/06/23 01:24:00;;;;;;;;;;;;;;;-142.75;100.00;76540.75;5055679;28;19912;-68
2022/06/23 01:26:25;;;;;;;;;;;;;;;-142.75;100.00;76538.78;5055893;28;20298;-68
2022/06/23 01:28:56;;;;;;;;;;;;;;;-142.75;100.00;76538.78;5055532;28;19912;-67
2022/06/23 01:31:24;;;;;;;;;;;;;;;-142.75;100.00;76540.75;5037849;28;19920;-68
2022/06/23 01:34:09;;;;;;;;;;;;;;;-142.75;100.00;76542.72;5055576;28;19917;-68
2022/06/23 01:36:47;;;;;;;;;;;;;;;-142.75;100.00;76544.69;5055632;28;19920;-68
2022/06/23 01:39:24;;;;;;;;;;;;;;;-142.75;100.00;76550.59;5055320;28;19913;-68
2022/06/23 01:41:56;;;;;;;;;;;;;;;-142.75;100.00;76554.53;5055681;28;19913;-67
2022/06/23 01:44:21;;;;;;;;;;;;;;;-142.75;100.00;76550.59;5037551;28;19913;-67
2022/06/23 01:46:49;;;;;;;;;;;;;;;-142.75;100.00;76550.59;5055446;28;19913;-68
2022/06/23 01:49:37;;;;;;;;;;;;;;;-142.75;100.00;76548.63;5037271;28;20007;-68
2022/06/23 01:52:12;;;;;;;;;;;;;;;-142.75;100.00;76550.59;5055179;28;19917;-68
2022/06/23 01:54:39;;;;;;;;;;;;;;;-142.75;100.00;76546.66;5055305;28;20006;-67
2022/06/23 01:57:10;;;;;;;;;;;;;;;-142.75;100.00;76550.59;5055171;28;19997;-67
2022/06/23 01:59:41;;;;;;;;;;;;;;;-142.75;100.00;76554.53;5055036;28;19935;-67
2022/06/23 02:02:12;;;;;;;;;;;;;;;-142.75;100.00;76558.47;5055154;28;19913;-67
2022/06/23 02:05:00;;;;;;;;;;;;;;;-142.75;100.00;76554.53;5054853;28;19921;-68
2022/06/23 02:07:30;;;;;;;;;;;;;;;-142.75;100.00;76558.47;5054881;28;20386;-68
2022/06/23 02:10:15;;;;;;;;;;;;;;;-142.75;100.00;76558.47;5054800;28;19971;-68
2022/06/23 02:12:41;;;;;;;;;;;;;;;-142.75;100.00;76552.56;5054878;28;19935;-67
2022/06/23 02:15:12;;;;;;;;;;;;;;;-142.75;100.00;76560.44;5054976;28;19913;-68
2022/06/23 02:18:00;;;;;;;;;;;;;;;-142.75;100.00;76562.41;5054755;28;19913;-68
2022/06/23 02:20:26;;;;;;;;;;;;;;;-142.75;100.00;76558.47;5026043;28;19917;-68
2022/06/23 02:22:59;;;;;;;;;;;;;;;-142.75;100.00;76562.41;5054890;28;20532;-67
2022/06/23 02:25:30;;;;;;;;;;;;;;;-142.75;100.00;76570.28;5054731;28;19913;-68
2022/06/23 02:28:21;;;;;;;;;;;;;;;-142.75;100.00;76570.28;5036422;28;19912;-68
2022/06/23 02:30:59;;;;;;;;;;;;;;;-142.75;100.00;76580.13;5053882;28;20008;-67
2022/06/23 02:33:28;;;;;;;;;;;;;;;-142.75;100.00;76584.06;5054452;28;19924;-67
2022/06/23 02:36:05;;;;;;;;;;;;;;;-142.75;100.00;76584.06;5054376;28;19912;-67
2022/06/23 02:38:45;;;;;;;;;;;;;;;-142.75;100.00;76574.22;5053998;28;19913;-68
2022/06/23 02:41:16;;;;;;;;;;;;;;;-142.75;100.00;76566.34;5054194;28;19948;-68
2022/06/23 02:43:44;;;;;;;;;;;;;;;-142.75;100.00;76564.38;5054321;28;20278;-68
2022/06/23 02:46:23;;;;;;;;;;;;;;;-142.75;100.00;76574.22;5054386;28;19935;-68
2022/06/23 02:48:55;;;;;;;;;;;;;;;-142.75;100.00;76574.22;5053938;28;19943;-68
2022/06/23 02:51:20;;;;;;;;;;;;;;;-142.75;100.00;76576.19;5054309;28;20042;-67
2022/06/23 02:53:51;;;;;;;;;;;;;;;-142.75;100.00;76578.16;5054117;28;19917;-68
2022/06/23 02:56:35;;;;;;;;;;;;;;;-142.75;100.00;76574.22;5054065;28;19917;-68
2022/06/23 02:59:00;;;;;;;;;;;;;;;-142.75;100.00;76578.16;5053742;28;20336;-68
2022/06/23 03:01:28;;;;;;;;;;;;;;;-142.75;100.00;76582.09;5053865;28;19967;-68
2022/06/23 03:03:56;;;;;;;;;;;;;;;-142.75;100.00;76578.16;5057831;22;19924;-69
2022/06/23 03:06:25;;;;;;;;;;;;;;;-142.75;100.00;76582.09;4970938;28;19926;-69
2022/06/23 03:09:13;;;;;;;;;;;;;;;-142.75;100.00;76586.03;4970103;28;20347;-69
2022/06/23 03:11:51;;;;;;;;;;;;;;;-142.75;100.00;76574.22;4966457;28;19915;-70
2022/06/23 03:14:24;;;;;;;;;;;;;;;-142.75;100.00;76572.25;4971868;28;20384;-70
2022/06/23 03:16:53;;;;;;;;;;;;;;;-142.75;100.00;76582.09;4971988;28;19956;-70
2022/06/23 03:19:29;;;;;;;;;;;;;;;-142.75;100.00;76586.03;4971600;28;19975;-70
2022/06/23 03:22:00;;;;;;;;;;;;;;;-142.75;100.00;76586.03;4971855;28;19918;-70
2022/06/23 03:24:31;;;;;;;;;;;;;;;-142.75;100.00;76584.06;4971571;28;19914;-70
2022/06/23 03:27:03;;;;;;;;;;;;;;;-142.75;100.00;76574.22;4971708;28;20021;-70
2022/06/23 03:29:38;;;;;;;;;;;;;;;-142.75;100.00;76562.41;4970204;28;20001;-70
2022/06/23 03:32:12;;;;;;;;;;;;;;;-142.75;100.00;76558.47;4971921;28;19918;-71
2022/06/23 03:34:37;;;;;;;;;;;;;;;-142.75;100.00;76574.22;4970280;28;20350;-70
2022/06/23 03:37:07;;;;;;;;;;;;;;;-142.75;100.00;76570.28;4971529;28;20013;-70
2022/06/23 03:42:18;;;;;;;;;;;;;;;-142.75;100.00;76562.41;4971757;28;19968;-70
2022/06/23 03:45:03;;;;;;;;;;;;;;;-142.75;100.00;76562.41;4971419;28;19914;-70
2022/06/23 03:47:41;;;;;;;;;;;;;;;-142.75;100.00;76548.63;4970208;28;19953;-70
2022/06/23 03:50:17;;;;;;;;;;;;;;;-142.75;100.00;76552.56;4970128;28;20314;-70
2022/06/23 03:52:47;;;;;;;;;;;;;;;-142.75;100.00;76546.66;4971319;28;19944;-70
2022/06/23 03:55:21;;;;;;;;;;;;;;;-142.75;100.00;76554.53;4971328;28;19921;-70
2022/06/23 03:57:53;;;;;;;;;;;;;;;-142.75;100.00;76554.53;4971018;28;19918;-70
2022/06/23 04:00:39;;;;;;;;;;;;;;;-142.75;100.00;76548.63;4971293;28;19914;-70
2022/06/23 04:03:07;;;;;;;;;;;;;;;-142.75;100.00;76546.66;4969810;28;20012;-70
2022/06/23 04:05:58;;;;;;;;;;;;;;;-142.75;100.00;76542.72;4971023;28;19918;-70
2022/06/23 04:08:26;;;;;;;;;;;;;;;-142.75;100.00;76556.50;4972376;28;19918;-70
2022/06/23 04:10:53;;;;;;;;;;;;;;;-142.75;100.00;76550.59;4971360;28;19922;-69
2022/06/23 04:13:23;;;;;;;;;;;;;;;-142.75;100.00;76554.53;4970990;28;20327;-70
2022/06/23 04:15:49;;;;;;;;;;;;;;;-142.75;100.00;76546.66;4971159;28;20021;-70
2022/06/23 04:18:20;;;;;;;;;;;;;;;-142.75;100.00;76538.78;4970777;28;19968;-70
2022/06/23 04:20:53;;;;;;;;;;;;;;;-142.75;100.00;76534.84;4969945;28;20299;-70
2022/06/23 04:23:28;;;;;;;;;;;;;;;-142.75;100.00;76534.84;4970969;28;19921;-70
2022/06/23 04:26:05;;;;;;;;;;;;;;;-142.75;100.00;76528.97;4970966;28;19918;-70
2022/06/23 04:28:36;;;;;;;;;;;;;;;-142.75;100.00;76527.00;4970567;28;19921;-70
2022/06/23 04:31:02;;;;;;;;;;;;;;;-142.75;100.00;76525.03;4970838;28;20345;-70
2022/06/23 04:33:28;;;;;;;;;;;;;;;-142.75;100.00;76519.13;4970576;28;20013;-70
2022/06/23 04:35:58;;;;;;;;;;;;;;;-142.75;100.00;76517.16;4969563;28;19918;-70
2022/06/23 04:38:26;;;;;;;;;;;;;;;-142.75;100.00;76511.25;4970540;28;19953;-70
2022/06/23 04:41:10;;;;;;;;;;;;;;;-142.75;100.00;76507.31;4969512;28;19914;-70
2022/06/23 04:43:45;;;;;;;;;;;;;;;-142.75;100.00;76493.53;4970504;28;20382;-70
2022/06/23 04:46:26;;;;;;;;;;;;;;;-142.75;100.00;76501.41;4970794;28;20005;-70
2022/06/23 04:48:57;;;;;;;;;;;;;;;-142.75;100.00;76491.56;4970382;28;19915;-70
2022/06/23 04:51:28;;;;;;;;;;;;;;;-142.75;100.00;76501.41;4969357;28;19921;-70
2022/06/23 04:53:57;;;;;;;;;;;;;;;-142.75;100.00;76491.56;4971359;28;20025;-70
2022/06/23 04:56:39;;;;;;;;;;;;;;;-142.75;100.00;76475.81;4974029;28;19937;-69
2022/06/23 04:59:16;;;;;;;;;;;;;;;-142.75;100.00;76471.88;4972404;28;19918;-70
2022/06/23 05:01:44;;;;;;;;;;;;;;;-142.75;100.00;76469.91;4973942;28;19918;-69
2022/06/23 05:04:16;;;;;;;;;;;;;;;-142.75;100.00;76462.03;4973723;28;19976;-70
2022/06/23 05:06:44;;;;;;;;;;;;;;;-142.75;100.00;76454.16;4973816;28;19968;-70
2022/06/23 05:09:12;;;;;;;;;;;;;;;-142.75;100.00;76448.25;4973523;28;19959;-70
2022/06/23 05:11:46;;;;;;;;;;;;;;;-142.75;100.00;76432.50;4973771;28;19914;-69
2022/06/23 05:14:25;;;;;;;;;;;;;;;-142.75;100.00;76422.66;4973627;28;19933;-70
2022/06/23 05:16:53;;;;;;;;;;;;;;;-142.75;100.00;76412.81;4973723;28;20268;-69
2022/06/23 05:19:27;;;;;;;;;;;;;;;-142.75;100.00;76402.97;4973370;28;19922;-70
2022/06/23 05:21:56;;;;;;;;;;;;;;;-142.75;100.00;76387.22;4972633;28;20013;-70
2022/06/23 05:24:35;;;;;;;;;;;;;;;-142.75;100.00;76401.00;4972836;28;20291;-69
2022/06/23 05:27:02;;;;;;;;;;;;;;;-142.75;100.00;76383.28;4971588;28;20280;-69
2022/06/23 05:29:46;;;;;;;;;;;;;;;-142.75;100.00;76365.56;4972155;28;20472;-69
2022/06/23 05:32:16;;;;;;;;;;;;;;;-142.75;100.00;76363.59;4972577;28;20307;-69
2022/06/23 05:34:49;;;;;;;;;;;;;;;-142.75;100.00;76347.84;4972336;28;19925;-69
2022/06/23 05:37:14;;;;;;;;;;;;;;;-142.75;100.00;76340.00;4971060;28;19914;-68
2022/06/23 05:39:44;;;;;;;;;;;;;;;-142.75;100.00;76334.09;4971031;28;19914;-69
2022/06/23 05:42:23;;;;;;;;;;;;;;;-142.75;100.00;76330.16;4972337;28;19921;-69
2022/06/23 05:44:50;;;;;;;;;;;;;;;-142.75;100.00;76316.38;4972451;28;19914;-69
2022/06/23 05:47:17;;;;;;;;;;;;;;;-142.75;100.00;76316.38;4971100;28;20000;-69
2022/06/23 05:49:46;;;;;;;;;;;;;;;-142.75;100.00;76302.59;4972159;28;20302;-69
2022/06/23 05:52:18;;;;;;;;;;;;;;;-142.75;100.00;76294.72;4972170;28;19914;-69
2022/06/23 05:54:45;;;;;;;;;;;;;;;-142.75;100.00;76292.75;4970296;28;20013;-68
2022/06/23 05:57:19;;;;;;;;;;;;;;;-142.75;100.00;76290.78;4967432;28;20337;-67
2022/06/23 05:59:53;;;;;;;;;;;;;;;-142.75;100.00;76280.94;4967982;28;19918;-68
2022/06/23 06:02:44;;;;;;;;;;;;;;;-142.75;100.00;76271.09;4965979;28;19961;-68
2022/06/23 06:05:18;;;;;;;;;;;;;;;-142.75;100.00;76243.53;4965274;28;19922;-70
2022/06/23 06:07:43;;;;;;;;;;;;;;;-142.75;100.00;76227.78;4968005;28;19918;-71
2022/06/23 06:10:15;;;;;;;;;;;;;;;-142.75;100.00;76217.94;4971547;28;19914;-71
2022/06/23 06:12:41;;;;;;;;;;;;;;;-142.75;100.00;76204.16;4972910;28;19961;-71
2022/06/23 06:15:21;;;;;;;;;;;;;;;-142.75;100.00;76170.72;4972661;28;19918;-70
2022/06/23 06:17:49;;;;;;;;;;;;;;;-142.75;100.00;76145.13;4969744;28;19922;-69
2022/06/23 06:20:14;;;;;;;;;;;;;;;-142.75;100.00;76121.50;4971172;28;19988;-70
2022/06/23 06:22:42;;;;;;;;;;;;;;;-142.75;100.00;76113.63;4971512;28;19919;-70
2022/06/23 06:25:15;;;;;;;;;;;;;;;-142.75;100.00;76093.94;4972695;28;20359;-69
2022/06/23 06:27:40;;;;;;;;;;;;;;;-142.75;100.00;76072.31;4972631;28;20391;-70
2022/06/23 06:30:13;;;;;;;;;;;;;;;-142.75;100.00;76052.63;4972558;28;19914;-69
2022/06/23 06:32:39;;;;;;;;;;;;;;;-142.75;100.00;76027.03;4972595;28;19914;-69
2022/06/23 06:35:04;;;;;;;;;;;;;;;-142.75;100.00;76011.28;4970528;28;19928;-70
2022/06/23 06:37:32;;;;;;;;;;;;;;;-142.75;100.00;75997.50;4972520;28;19918;-69
2022/06/23 06:39:59;;;;;;;;;;;;;;;-142.75;100.00;75975.84;4972256;28;19915;-69
2022/06/23 06:42:31;;;;;;;;;;;;;;;-142.75;100.00;75964.03;4972345;28;20372;-70
2022/06/23 06:44:57;;;;;;;;;;;;;;;-142.75;100.00;75967.97;4972368;28;20379;-69
2022/06/23 06:47:24;;;;;;;;;;;;;;;-142.75;100.00;75967.97;4972421;28;20002;-68
2022/06/23 06:49:50;;;;;;;;;;;;;;;-142.75;100.00;75981.75;4970744;28;19914;-70
2022/06/23 06:52:16;;;;;;;;;;;;;;;-142.75;100.00;75995.53;4969267;28;20482;-70
2022/06/23 06:54:51;;;;;;;;;;;;;;;-142.75;100.00;75999.47;4972139;28;19918;-70
2022/06/23 06:57:21;;;;;;;;;;;;;;;-142.75;100.00;75999.47;4970571;28;19918;-69
2022/06/23 06:59:51;;;;;;;;;;;;;;;-142.75;100.00;75989.63;4971950;28;19914;-69
2022/06/23 07:02:23;;;;;;;;;;;;;;;-142.75;100.00;75967.97;4972154;28;19914;-70
2022/06/23 07:04:51;;;;;;;;;;;;;;;-142.75;100.00;75958.16;4969645;28;19925;-70
2022/06/23 07:07:23;;;;;;;;;;;;;;;-142.75;100.00;75934.53;4972044;28;20306;-70
2022/06/23 07:09:54;;;;;;;;;;;;;;;-142.75;100.00;75914.84;4970557;28;20390;-70
2022/06/23 07:12:25;;;;;;;;;;;;;;;-142.75;100.00;75903.03;4972077;28;19914;-70
2022/06/23 07:15:03;;;;;;;;;;;;;;;-142.75;100.00;75877.44;4969777;28;19930;-70
2022/06/23 07:17:34;;;;;;;;;;;;;;;-142.75;100.00;75857.78;4971570;28;20403;-69
2022/06/23 07:20:05;;;;;;;;;;;;;;;-142.75;100.00;75849.91;4971646;28;19918;-69
2022/06/23 07:22:33;;;;;;;;;;;;;;;-142.75;100.00;75838.09;4971874;28;19914;-69
2022/06/23 07:25:10;;;;;;;;;;;;;;;-142.75;100.00;75826.28;4970091;28;20506;-69
2022/06/23 07:27:40;;;;;;;;;;;;;;;-142.75;100.00;75820.38;4968903;28;20376;-70
2022/06/23 07:30:06;;;;;;;;;;;;;;;-142.75;100.00;75798.72;4969993;28;19914;-68
2022/06/23 07:32:38;;;;;;;;;;;;;;;-142.75;100.00;75804.63;4969900;28;19914;-68
2022/06/23 07:35:12;;;;;;;;;;;;;;;-142.75;100.00;75786.91;4951019;28;19918;-70
2022/06/23 07:38:03;;;;;;;;;;;;;;;-142.75;100.00;75775.09;4951176;28;19915;-69
2022/06/23 07:40:31;;;;;;;;;;;;;;;-142.75;100.00;75759.38;4977428;28;19918;-69
2022/06/23 07:43:04;;;;;;;;;;;;;;;-142.75;100.00;75729.84;4970513;28;19914;-69
2022/06/23 07:45:35;;;;;;;;;;;;;;;-142.75;100.00;75708.19;4969893;28;19922;-70
2022/06/23 07:48:01;;;;;;;;;;;;;;;-142.75;100.00;75696.38;4971371;28;19914;-70
2022/06/23 07:50:27;;;;;;;;;;;;;;;-142.75;100.00;75700.31;4971475;28;20009;-70
2022/06/23 07:52:52;;;;;;;;;;;;;;;-142.75;100.00;75696.38;4971374;28;19967;-68
2022/06/23 07:55:20;;;;;;;;;;;;;;;-142.75;100.00;75698.34;4969794;28;19967;-68
2022/06/23 07:57:45;;;;;;;;;;;;;;;-142.75;100.00;75688.50;4970149;28;20822;-69
2022/06/23 08:00:11;;;;;;;;;;;;;;;-142.75;100.00;75678.66;4971178;28;19928;-70
2022/06/23 08:02:40;;;;;;;;;;;;;;;-142.75;100.00;75645.22;4968240;28;19925;-69
2022/06/23 08:05:08;;;;;;;;;;;;;;;-142.75;100.00;75631.44;4965502;28;19918;-70
2022/06/23 08:07:34;;;;;;;;;;;;;;;-142.75;100.00;75621.59;4962392;28;20083;-69
2022/06/23 08:10:03;;;;;;;;;;;;;;;-142.75;100.00;75609.78;4963441;28;19941;-68
2022/06/23 08:12:53;;;;;;;;;;;;;;;-142.75;100.00;75586.19;4963417;28;20411;-70
2022/06/23 08:18:20;;;;;;;;;;;;;;;-142.75;100.00;75586.19;4968140;28;19925;-67
2022/06/23 08:20:50;;;;;;;;;;;;;;;-142.75;100.00;75584.22;4967022;28;19922;-69
2022/06/23 08:23:17;;;;;;;;;;;;;;;-142.75;100.00;75544.84;4967088;28;19918;-70
2022/06/23 08:25:43;;;;;;;;;;;;;;;-142.75;100.00;75536.97;4966827;28;19929;-69
2022/06/23 08:28:08;;;;;;;;;;;;;;;-142.75;100.00;75509.44;4957708;28;19984;-69
2022/06/23 08:30:36;;;;;;;;;;;;;;;-142.75;100.00;75477.94;4966291;28;19922;-70
2022/06/23 08:33:02;;;;;;;;;;;;;;;-142.75;100.00;75464.16;4967695;28;19918;-70
2022/06/23 08:35:37;;;;;;;;;;;;;;;-142.75;100.00;75440.53;4962460;28;19918;-70
2022/06/23 08:38:14;;;;;;;;;;;;;;;-142.75;100.00;75393.31;4970045;28;19914;-70
2022/06/23 08:40:51;;;;;;;;;;;;;;;-142.75;100.00;75365.75;4966093;28;19926;-68
2022/06/23 08:43:36;;;;;;;;;;;;;;;-142.75;100.00;75357.91;4963501;28;19926;-69
2022/06/23 08:46:05;;;;;;;;;;;;;;;-142.75;100.00;75352.00;4977551;28;20380;-70
2022/06/23 08:48:30;;;;;;;;;;;;;;;-142.75;100.00;75340.19;4962867;28;20483;-70
2022/06/23 08:51:09;;;;;;;;;;;;;;;-142.75;100.00;75348.06;4949786;28;19918;-69
2022/06/23 08:53:49;;;;;;;;;;;;;;;-142.75;100.00;75332.31;4950021;28;20321;-67
2022/06/23 08:56:15;;;;;;;;;;;;;;;-142.75;100.00;75312.63;4959295;28;19929;-69
2022/06/23 08:58:44;;;;;;;;;;;;;;;-142.75;100.00;75283.13;4957337;28;20396;-70
2022/06/23 09:01:20;;;;;;;;;;;;;;;-142.75;100.00;75251.63;4965631;28;20012;-68
2022/06/23 09:04:05;;;;;;;;;;;;;;;-142.75;100.00;75247.69;4966292;28;19987;-70
2022/06/23 09:06:33;;;;;;;;;;;;;;;-142.75;100.00;75235.88;5048781;22;19931;-68
2022/06/23 09:09:17;;;;;;;;;;;;;;;-142.75;100.00;75245.72;5045651;28;20378;-68
2022/06/23 09:12:01;;;;;;;;;;;;;;;-142.75;100.00;75239.81;5051940;28;19963;-68
2022/06/23 09:14:26;;;;;;;;;;;;;;;-142.75;100.00;75241.78;5050589;28;20370;-68
2022/06/23 09:16:51;;;;;;;;;;;;;;;-142.75;100.00;75212.28;5049853;28;20046;-68
2022/06/23 09:19:17;;;;;;;;;;;;;;;-142.75;100.00;75192.59;5050045;28;20378;-69
2022/06/23 09:21:51;;;;;;;;;;;;;;;-142.75;100.00;75165.03;5052163;28;19919;-69
2022/06/23 09:24:28;;;;;;;;;;;;;;;-142.75;100.00;75172.91;5051800;28;19913;-70
2022/06/23 09:27:03;;;;;;;;;;;;;;;-142.75;100.00;75159.16;5051854;28;19912;-68
2022/06/23 09:29:28;;;;;;;;;;;;;;;-142.75;100.00;75151.28;5051344;28;19913;-70
2022/06/23 09:31:53;;;;;;;;;;;;;;;-142.75;100.00;75141.44;5051701;28;20397;-68
2022/06/23 09:34:18;;;;;;;;;;;;;;;-142.75;100.00;75125.69;5051771;28;19920;-69
2022/06/23 09:37:07;;;;;;;;;;;;;;;-142.75;100.00;75098.16;5051711;28;19982;-69
2022/06/23 09:39:50;;;;;;;;;;;;;;;-142.75;100.00;75086.34;5012865;28;19921;-68
2022/06/23 09:42:22;;;;;;;;;;;;;;;-142.75;100.00;75070.59;5037323;28;19929;-70
2022/06/23 09:44:50;;;;;;;;;;;;;;;-142.75;100.00;75058.78;5055169;28;19912;-70
2022/06/23 09:47:19;;;;;;;;;;;;;;;-142.75;100.00;75062.72;5054902;28;19913;-70
2022/06/23 09:50:03;;;;;;;;;;;;;;;-142.75;100.00;75041.09;5054881;28;19920;-70
2022/06/23 09:52:40;;;;;;;;;;;;;;;-142.75;100.00;74991.88;5055328;28;19913;-69
2022/06/23 09:55:18;;;;;;;;;;;;;;;-142.75;100.00;74999.75;5055337;28;19921;-69
2022/06/23 09:57:46;;;;;;;;;;;;;;;-142.75;100.00;74995.81;5055207;28;20441;-68
2022/06/23 10:00:11;;;;;;;;;;;;;;;-142.75;100.00;74984.00;5055027;28;19919;-69
2022/06/23 10:02:42;;;;;;;;;;;;;;;-142.75;100.00;74972.22;5055829;28;19912;-70
2022/06/23 10:05:21;;;;;;;;;;;;;;;-142.75;100.00;74964.34;5055468;28;19920;-68
2022/06/23 10:07:49;;;;;;;;;;;;;;;-142.75;100.00;74985.97;5055763;28;19917;-68
2022/06/23 10:10:14;;;;;;;;;;;;;;;-142.75;100.00;74980.06;5055424;28;19913;-68
2022/06/23 10:12:43;;;;;;;;;;;;;;;-142.75;100.00;75009.59;5055359;28;20301;-68
2022/06/23 10:15:37;;;;;;;;;;;;;;;-142.75;100.00;75015.50;5055163;28;19917;-68
2022/06/23 10:18:08;;;;;;;;;;;;;;;-142.75;100.00;74997.78;5037844;28;19913;-68
2022/06/23 10:20:34;;;;;;;;;;;;;;;-142.75;100.00;74987.94;5055585;28;19928;-68
2022/06/23 10:23:18;;;;;;;;;;;;;;;-142.75;100.00;74991.88;5055794;28;19913;-68
2022/06/23 10:25:45;;;;;;;;;;;;;;;-142.75;100.00;74950.56;5055503;28;19916;-69
2022/06/23 10:28:25;;;;;;;;;;;;;;;-142.75;100.00;74970.25;5054694;28;20015;-68
2022/06/23 10:30:57;;;;;;;;;;;;;;;-142.75;100.00;74960.41;5055012;28;19919;-68
2022/06/23 10:33:37;;;;;;;;;;;;;;;-142.75;100.00;74944.66;5054293;28;19917;-68
2022/06/23 10:36:20;;;;;;;;;;;;;;;-142.75;100.00;74952.53;5054954;28;19999;-68
2022/06/23 10:39:07;;;;;;;;;;;;;;;-142.75;100.00;74940.72;5054502;28;19913;-68
2022/06/23 10:41:51;;;;;;;;;;;;;;;-142.75;100.00;74917.13;5054695;28;19971;-68
2022/06/23 10:44:16;;;;;;;;;;;;;;;-142.75;100.00;74919.09;5054573;28;20428;-67
2022/06/23 10:46:42;;;;;;;;;;;;;;;-142.75;100.00;74921.06;5037001;28;19913;-68
2022/06/23 10:49:13;;;;;;;;;;;;;;;-142.75;100.00;74934.81;5054244;28;19974;-69
2022/06/23 10:51:47;;;;;;;;;;;;;;;-142.75;100.00;74921.06;5053150;28;20362;-68
2022/06/23 10:54:16;;;;;;;;;;;;;;;-142.75;100.00;74903.34;5054038;28;19924;-68
2022/06/23 10:56:53;;;;;;;;;;;;;;;-142.75;100.00;74907.28;5053995;28;19920;-68
2022/06/23 10:59:24;;;;;;;;;;;;;;;-142.75;100.00;74917.13;5053697;28;19913;-68
2022/06/23 11:02:02;;;;;;;;;;;;;;;-142.75;100.00;74909.25;5054053;28;20046;-68
2022/06/23 11:04:54;;;;;;;;;;;;;;;-142.75;100.00;74907.28;5053880;28;19919;-67
2022/06/23 11:07:37;;;;;;;;;;;;;;;-142.75;100.00;74928.91;5023069;28;19916;-68
2022/06/23 11:10:05;;;;;;;;;;;;;;;-142.75;100.00;74956.47;5053705;28;20371;-68
2022/06/23 11:12:37;;;;;;;;;;;;;;;-142.75;100.00;74932.84;5053770;28;19917;-68
2022/06/23 11:15:02;;;;;;;;;;;;;;;-142.75;100.00;74883.66;5053517;28;20343;-68
2022/06/23 11:17:27;;;;;;;;;;;;;;;-142.75;100.00;74854.16;5053755;28;19913;-68
2022/06/23 11:19:55;;;;;;;;;;;;;;;-142.75;100.00;74881.69;5053388;28;19919;-65
2022/06/23 11:22:31;;;;;;;;;;;;;;;-142.75;100.00;74885.63;5053513;28;19916;-66
2022/06/23 11:25:19;;;;;;;;;;;;;;;-142.75;100.00;74917.13;5053549;28;19913;-66
2022/06/23 11:27:53;;;;;;;;;;;;;;;-142.75;100.00;74917.13;5053343;28;19938;-68
2022/06/23 11:30:37;;;;;;;;;;;;;;;-142.75;100.00;74869.88;5053351;28;19913;-68
2022/06/23 11:33:16;;;;;;;;;;;;;;;-142.75;100.00;74848.25;5053286;28;20007;-68
2022/06/23 11:35:50;;;;;;;;;;;;;;;-142.75;100.00;74824.63;5053182;28;19913;-66
2022/06/23 11:38:15;;;;;;;;;;;;;;;-142.75;100.00;74820.69;5053331;28;20297;-66
2022/06/23 11:40:45;;;;;;;;;;;;;;;-142.75;100.00;74801.03;5053231;28;19919;-65
2022/06/23 11:43:22;;;;;;;;;;;;;;;-142.75;100.00;74799.06;5053096;28;20062;-66
2022/06/23 11:45:54;;;;;;;;;;;;;;;-142.75;100.00;74862.03;5053244;28;19999;-66
2022/06/23 11:48:37;;;;;;;;;;;;;;;-142.75;100.00;74858.09;5052764;28;19958;-66
2022/06/23 11:51:12;;;;;;;;;;;;;;;-142.75;100.00;74901.38;5052961;28;19912;-66
2022/06/23 11:53:42;;;;;;;;;;;;;;;-142.75;100.00;74895.47;5052755;28;19917;-65
2022/06/23 11:56:17;;;;;;;;;;;;;;;-142.75;100.00;74860.06;5052918;28;19912;-66
2022/06/23 11:58:50;;;;;;;;;;;;;;;-142.75;100.00;74873.81;5034732;28;20003;-66
2022/06/23 12:01:17;;;;;;;;;;;;;;;-142.75;100.00;74877.75;5052972;28;19917;-67
2022/06/23 12:03:55;;;;;;;;;;;;;;;-142.75;100.00;74836.44;5052825;28;19913;-66
2022/06/23 12:06:26;;;;;;;;;;;;;;;-142.75;100.00;74830.53;5052586;28;19971;-66
2022/06/23 12:09:07;;;;;;;;;;;;;;;-142.75;100.00;74803.00;5052345;28;19913;-65
2022/06/23 12:11:33;;;;;;;;;;;;;;;-142.75;100.00;74795.13;5052605;28;19912;-66
2022/06/23 12:13:59;;;;;;;;;;;;;;;-142.75;100.00;74791.19;5052607;28;19924;-66
2022/06/23 12:16:25;;;;;;;;;;;;;;;-142.75;100.00;74773.47;5052463;28;19959;-66
2022/06/23 12:18:55;;;;;;;;;;;;;;;-142.75;100.00;74801.03;5052440;28;19947;-68
2022/06/23 12:21:32;;;;;;;;;;;;;;;-142.75;100.00;74838.41;5052451;28;19913;-66
2022/06/23 12:24:04;;;;;;;;;;;;;;;-142.75;100.00;74860.06;5052526;28;19917;-65
2022/06/23 12:26:53;;;;;;;;;;;;;;;-142.75;100.00;74862.03;5034686;28;19913;-66
2022/06/23 12:29:23;;;;;;;;;;;;;;;-142.75;100.00;74846.28;5041496;28;19913;-66
2022/06/23 12:31:54;;;;;;;;;;;;;;;-142.75;100.00;74824.63;5052413;28;19913;-65
2022/06/23 12:34:36;;;;;;;;;;;;;;;-142.75;100.00;74799.06;5052102;28;20374;-66
2022/06/23 12:37:26;;;;;;;;;;;;;;;-142.75;100.00;74777.41;5052288;28;19920;-66
2022/06/23 12:39:51;;;;;;;;;;;;;;;-142.75;100.00;74763.63;5052129;28;19920;-65
2022/06/23 12:42:16;;;;;;;;;;;;;;;-142.75;100.00;74724.28;5052223;28;20320;-66
2022/06/23 12:44:58;;;;;;;;;;;;;;;-142.75;100.00;74742.00;5052243;28;20381;-65
2022/06/23 12:47:23;;;;;;;;;;;;;;;-142.75;100.00;74747.91;5052216;28;19913;-66
2022/06/23 12:50:07;;;;;;;;;;;;;;;-142.75;100.00;74757.75;5051892;28;20007;-66